Portada
METAR-TAF:

METAR-TAF

Aeroports :

Madrid-Torrejón, Espanya

latitud: 40-29N, longitud: 003-27W, altitud: 607 m

Observació

L'informe es va fer fa 37 minuts, a les 02:00 UTC
Vent 6 kt del Nord/Nord-Est
Temperatura 3°C
Humitat 81%
Pressió 1033 hPa
Visibilitat 10 km o més
sense núvols per sota de 1500 mi sense presència de cumulonimbus.

METAR: LETO 230200Z 03006KT CAVOK 03/M00 Q1033 NOSIG

Hora: 03:37 (02:37 UTC)

Pronòstic

L'informe es va fer fa 3 hores i 37 minuts, a les 23:00 UTC
Pronòstic vàlid del 23 a les 00 UTC al 23 a les 24 UTC
Vent 3 kt amb direcció variable
Visibilitat 10 km o més
sense núvols per sota de 1500 mi sense presència de cumulonimbus.
Probabilitat 30% :
Temporalment
l' 23 a les 00 UTC al 23 a les 10 UTC
Vent 10 kt del Nord/Nord-Est

TAF: LETO 222300Z 2300/2324 VRB03KT CAVOK TX20/2316Z TNM00/2306Z PROB30 TEMPO 2300/2310 02010KT

Observacions i pronòstics meteorològics de més de 4000 aeroports (METAR i TAF).

Les estacions disponibles són els punts grocs i vermells al mapa.

Posi el ratolí al punt desitjat per veure el nom de l'estació.

Feu clic per veure les observacions i els pronòstics meteorològics.

Per canviar el mapa: feu clic els botons verds amb una creu de color negre per apropar; al botó verd amb un guió per allunyar la imatge; o en les fletxes verdes per a mapes adjacents.


METAR-TAF: